Flight Track Log - Related Links

Times and Time Zones

All times are in EDT time to prevent confusion due to time zone crossing. See the FSR411 flight status page for this flight to view local times or setup timezone preferences in your user account.

Time Position Orientation Groundspeed Altitude Reporting Facility
EDT Latitude Longitude Course Direction KTS MPH feet Rate Location/Type
Tue 08:25:11 AM 42.3272 -82.9264 142° Southeast 227 261 4,500  Level Cleveland Center
Tue 08:25:18 AM 42.3083 -82.9328 194° South 261 300 5,200 3,194 Climbing Cleveland Center
Tue 08:26:13 AM 42.2622 -82.9689 210° Southwest 258 297 7,800 3,333 Climbing Cleveland Center
Tue 08:27:15 AM 42.1797 -83.0308 209° Southwest 280 322 11,700 3,145 Climbing Cleveland Center
Tue 08:28:17 AM 42.1181 -83.1314 230° Southwest 344 396 14,300 3,145 Climbing Cleveland Center
Tue 08:29:19 AM 42.0411 -83.2469 228° Southwest 386 444 18,200 3,871 Climbing Cleveland Center
Tue 08:30:21 AM 41.9686 -83.3589 229° Southwest 392 451 22,300 3,484 Climbing Cleveland Center
Tue 08:31:23 AM 41.8992 -83.4672 229° Southwest 384 442 25,400 1,790 Climbing Cleveland Center
Tue 08:32:25 AM 41.8392 -83.5853 236° Southwest 400 460 26,000 290 Climbing Cleveland Center
Tue 08:33:27 AM 41.7731 -83.7119 235° Southwest 412 474 26,000  Level Cleveland Center
Tue 08:34:29 AM 41.7058 -83.8394 235° Southwest 415 478 26,000  Level Cleveland Center
Tue 08:35:31 AM 41.6250 -83.9917 235° Southwest 416 479 26,000  Level Cleveland Center
Tue 08:36:33 AM 41.5581 -84.1175 235° Southwest 416 479 26,000  Level Cleveland Center
Tue 08:37:18 AM 41.5161 -84.1969 235° Southwest 417 480 26,000  Level Chicago Center
Tue 08:38:20 AM 41.4494 -84.3228 235° Southwest 416 479 26,000  Level Chicago Center
Tue 08:39:22 AM 41.3678 -84.4733 234° Southwest 416 479 26,000  Level Chicago Center
Tue 08:40:24 AM 41.3003 -84.5994 235° Southwest 416 479 26,000  Level Chicago Center
Tue 08:41:26 AM 41.2325 -84.7242 234° Southwest 415 478 26,000 435 Level Chicago Center
Tue 08:42:28 AM 41.1747 -84.8547 240° Southwest 409 471 26,900 649 Climbing Chicago Center
Tue 08:44:31 AM 41.0883 -85.1400 248° West 415 478 28,000 357 Climbing Chicago Center
Tue 08:45:33 AM 41.0419 -85.2825 247° West 418 481 28,000  Level Chicago Center
Tue 08:46:35 AM 40.9889 -85.4531 248° West 417 480 28,000  Level Chicago Center
Tue 08:47:37 AM 40.9422 -85.5939 246° West 416 479 28,000  Level Chicago Center
Tue 08:48:39 AM 40.8967 -85.7350 247° West 418 481 28,000  Level Chicago Center
Tue 08:49:41 AM 40.8506 -85.8775 247° West 420 483 28,000  Level Chicago Center
Tue 08:50:43 AM 40.8050 -86.0194 247° West 421 484 28,000  Level Chicago Center
Tue 08:51:45 AM 40.7589 -86.1614 247° West 421 484 28,000 -48 Level Chicago Center
Tue 08:52:47 AM 40.7128 -86.3028 247° West 421 484 27,900 -774 Descending Chicago Center
Tue 08:53:49 AM 40.6636 -86.4514 246° West 414 476 26,400 -1,258 Descending Chicago Center
Tue 08:54:51 AM 40.6186 -86.5881 247° West 410 472 25,300 -1,113 Descending Chicago Center
Tue 08:55:53 AM 40.5647 -86.7506 246° West 408 470 24,100 -1,113 Descending Chicago Center
Tue 08:56:55 AM 40.5206 -86.8825 246° West 400 460 23,000 -1,500 Descending Chicago Center
Tue 08:57:57 AM 40.4775 -87.0094 246° West 387 445 21,000 -1,839 Descending Chicago Center
Tue 08:58:59 AM 40.4339 -87.1369 246° West 385 443 19,200 -1,742 Descending Chicago Center
Tue 09:00:01 AM 40.3911 -87.2644 246° West 385 443 17,400 -1,742 Descending Chicago Center
Tue 09:01:03 AM 40.3481 -87.3869 245° Southwest 375 432 15,600 -1,935 Descending Chicago Center
Tue 09:02:05 AM 40.2989 -87.5314 246° West 365 420 13,400 -1,951 Descending Chicago Center
Tue 09:03:06 AM 40.2578 -87.6481 245° Southwest 356 410 11,600 -1,659 Descending Chicago Center
Tue 09:04:08 AM 40.2217 -87.7531 246° West 325 374 10,000 -1,790 Descending Chicago Center
Tue 09:05:10 AM 40.1881 -87.8511 246° West 289 333 7,900 -1,887 Descending Chicago Center
Tue 09:06:12 AM 40.1672 -87.9422 253° West 284 327 6,100 -1,790 Descending Chicago Center
Tue 09:07:14 AM 40.1539 -88.0461 261° West 280 322 4,200 -1,452 Descending Chicago Center
Tue 09:08:16 AM 40.1394 -88.1394 259° West 273 314 3,100 -629 Descending Chicago Center
Tue 09:09:18 AM 40.1253 -88.2411 260° West 266 306 2,900 -194 Descending Chicago Center
Tue 09:11:00 AM 40.0333 -88.2667 246° West  Level FlightAware Approximate
Tue 09:18:00 AM 40.0388 -88.2778 246° West  Level Estimated
Tue 09:19:00 AM 40.0388 -88.2778 246° West  Level Estimated
Tue 09:20:00 AM 40.0388 -88.2778 246° West  Level Estimated

Login

Don't have an account? Register now (free) for customized features, flight alerts, and more!